Aviation Digital Data Service (ADDS)

Output produced by METARs form (2353 UTC 20 January 2019)
found at http://www.aviationweather.gov/metar/data/
 
METAR text: RJGG 202330Z 32018KT 9999 VCSH FEW020 SCT060 06/M00 Q1015 NOSIG
Conditions at: RJGG (NAGOYA/CHUBU , JP) observed 2330 UTC 20 January 2019
Temperature: 6.0°C (43°F)
Dewpoint: 0.0°C (32°F) [RH = 65%]
Pressure (altimeter): 29.97 inches Hg (1015.0 mb)
Winds: from the NW (320 degrees) at 21 MPH (18 knots; 9.3 m/s)
Visibility: 6 or more miles (10+ km)
Ceiling: at least 12,000 feet AGL
Clouds: few clouds at 2000 feet AGL
scattered clouds at 6000 feet AGL
Weather: VCSH  (showers in vicinity)

METAR text: RJGG 202300Z 32018KT 9999 FEW020 SCT050 06/00 Q1015 NOSIG
Conditions at: RJGG (NAGOYA/CHUBU , JP) observed 2300 UTC 20 January 2019
Temperature: 6.0°C (43°F)
Dewpoint: 0.0°C (32°F) [RH = 65%]
Pressure (altimeter): 29.97 inches Hg (1015.0 mb)
Winds: from the NW (320 degrees) at 21 MPH (18 knots; 9.3 m/s)
Visibility: 6 or more miles (10+ km)
Ceiling: at least 12,000 feet AGL
Clouds: few clouds at 2000 feet AGL
scattered clouds at 5000 feet AGL
Weather: no significant weather observed at this time

METAR text: RJGG 202230Z 32021KT 9999 FEW020 BKN050 06/M00 Q1014 NOSIG
Conditions at: RJGG (NAGOYA/CHUBU , JP) observed 2230 UTC 20 January 2019
Temperature: 6.0°C (43°F)
Dewpoint: 0.0°C (32°F) [RH = 65%]
Pressure (altimeter): 29.94 inches Hg (1014.0 mb)
Winds: from the NW (320 degrees) at 24 MPH (21 knots; 10.8 m/s)
Visibility: 6 or more miles (10+ km)
Ceiling: 5000 feet AGL
Clouds: few clouds at 2000 feet AGL
broken clouds at 5000 feet AGL
Weather: no significant weather observed at this time

METAR text: RJGG 202200Z 31020KT 9999 FEW015 SCT050 06/00 Q1014 NOSIG
Conditions at: RJGG (NAGOYA/CHUBU , JP) observed 2200 UTC 20 January 2019
Temperature: 6.0°C (43°F)
Dewpoint: 0.0°C (32°F) [RH = 65%]
Pressure (altimeter): 29.94 inches Hg (1014.0 mb)
Winds: from the NW (310 degrees) at 23 MPH (20 knots; 10.3 m/s)
Visibility: 6 or more miles (10+ km)
Ceiling: at least 12,000 feet AGL
Clouds: few clouds at 1500 feet AGL
scattered clouds at 5000 feet AGL
Weather: no significant weather observed at this time

METAR text: RJGG 202130Z 31025KT 9999 FEW015 SCT050 06/00 Q1013 NOSIG
Conditions at: RJGG (NAGOYA/CHUBU , JP) observed 2130 UTC 20 January 2019
Temperature: 6.0°C (43°F)
Dewpoint: 0.0°C (32°F) [RH = 65%]
Pressure (altimeter): 29.91 inches Hg (1013.0 mb)
Winds: from the NW (310 degrees) at 29 MPH (25 knots; 12.9 m/s)
Visibility: 6 or more miles (10+ km)
Ceiling: at least 12,000 feet AGL
Clouds: few clouds at 1500 feet AGL
scattered clouds at 5000 feet AGL
Weather: no significant weather observed at this time

METAR text: RJGG 202100Z 32024KT 9999 FEW020 SCT050 06/M00 Q1013 NOSIG
Conditions at: RJGG (NAGOYA/CHUBU , JP) observed 2100 UTC 20 January 2019
Temperature: 6.0°C (43°F)
Dewpoint: 0.0°C (32°F) [RH = 65%]
Pressure (altimeter): 29.91 inches Hg (1013.0 mb)
Winds: from the NW (320 degrees) at 28 MPH (24 knots; 12.3 m/s)
Visibility: 6 or more miles (10+ km)
Ceiling: at least 12,000 feet AGL
Clouds: few clouds at 2000 feet AGL
scattered clouds at 5000 feet AGL
Weather: no significant weather observed at this time

METAR text: RJGG 202030Z 33017KT 9999 FEW020 BKN050 05/M00 Q1013 NOSIG
Conditions at: RJGG (NAGOYA/CHUBU , JP) observed 2030 UTC 20 January 2019
Temperature: 5.0°C (41°F)
Dewpoint: 0.0°C (32°F) [RH = 70%]
Pressure (altimeter): 29.91 inches Hg (1013.0 mb)
Winds: from the NNW (330 degrees) at 20 MPH (17 knots; 8.7 m/s)
Visibility: 6 or more miles (10+ km)
Ceiling: 5000 feet AGL
Clouds: few clouds at 2000 feet AGL
broken clouds at 5000 feet AGL
Weather: no significant weather observed at this time

METAR text: RJGG 202000Z 34020KT 9999 FEW020 BKN050 06/M00 Q1013 NOSIG
Conditions at: RJGG (NAGOYA/CHUBU , JP) observed 2000 UTC 20 January 2019
Temperature: 6.0°C (43°F)
Dewpoint: 0.0°C (32°F) [RH = 65%]
Pressure (altimeter): 29.91 inches Hg (1013.0 mb)
Winds: from the NNW (340 degrees) at 23 MPH (20 knots; 10.3 m/s)
Visibility: 6 or more miles (10+ km)
Ceiling: 5000 feet AGL
Clouds: few clouds at 2000 feet AGL
broken clouds at 5000 feet AGL
Weather: no significant weather observed at this time

METAR text: RJGG 201930Z 33016KT 9999 FEW020 BKN050 05/M01 Q1013 NOSIG
Conditions at: RJGG (NAGOYA/CHUBU , JP) observed 1930 UTC 20 January 2019
Temperature: 5.0°C (41°F)
Dewpoint: -1.0°C (30°F) [RH = 65%]
Pressure (altimeter): 29.91 inches Hg (1013.0 mb)
Winds: from the NNW (330 degrees) at 18 MPH (16 knots; 8.2 m/s)
Visibility: 6 or more miles (10+ km)
Ceiling: 5000 feet AGL
Clouds: few clouds at 2000 feet AGL
broken clouds at 5000 feet AGL
Weather: no significant weather observed at this time

METAR text: RJGG 201900Z 32022KT 9999 FEW020 SCT050 06/M00 Q1013 NOSIG
Conditions at: RJGG (NAGOYA/CHUBU , JP) observed 1900 UTC 20 January 2019
Temperature: 6.0°C (43°F)
Dewpoint: 0.0°C (32°F) [RH = 65%]
Pressure (altimeter): 29.91 inches Hg (1013.0 mb)
Winds: from the NW (320 degrees) at 25 MPH (22 knots; 11.3 m/s)
Visibility: 6 or more miles (10+ km)
Ceiling: at least 12,000 feet AGL
Clouds: few clouds at 2000 feet AGL
scattered clouds at 5000 feet AGL
Weather: no significant weather observed at this time

METAR text: RJGG 201830Z 32023KT 9999 FEW020 SCT060 06/00 Q1012 NOSIG
Conditions at: RJGG (NAGOYA/CHUBU , JP) observed 1830 UTC 20 January 2019
Temperature: 6.0°C (43°F)
Dewpoint: 0.0°C (32°F) [RH = 65%]
Pressure (altimeter): 29.88 inches Hg (1012.0 mb)
Winds: from the NW (320 degrees) at 26 MPH (23 knots; 11.8 m/s)
Visibility: 6 or more miles (10+ km)
Ceiling: at least 12,000 feet AGL
Clouds: few clouds at 2000 feet AGL
scattered clouds at 6000 feet AGL
Weather: no significant weather observed at this time

METAR text: RJGG 201800Z 32023KT 9999 FEW020 SCT060 07/01 Q1012 NOSIG
Conditions at: RJGG (NAGOYA/CHUBU , JP) observed 1800 UTC 20 January 2019
Temperature: 7.0°C (45°F)
Dewpoint: 1.0°C (34°F) [RH = 66%]
Pressure (altimeter): 29.88 inches Hg (1012.0 mb)
Winds: from the NW (320 degrees) at 26 MPH (23 knots; 11.8 m/s)
Visibility: 6 or more miles (10+ km)
Ceiling: at least 12,000 feet AGL
Clouds: few clouds at 2000 feet AGL
scattered clouds at 6000 feet AGL
Weather: no significant weather observed at this time

METAR text: RJGG 201730Z 31026KT 9999 FEW020 07/01 Q1011 NOSIG
Conditions at: RJGG (NAGOYA/CHUBU , JP) observed 1730 UTC 20 January 2019
Temperature: 7.0°C (45°F)
Dewpoint: 1.0°C (34°F) [RH = 66%]
Pressure (altimeter): 29.85 inches Hg (1011.0 mb)
Winds: from the NW (310 degrees) at 30 MPH (26 knots; 13.4 m/s)
Visibility: 6 or more miles (10+ km)
Ceiling: at least 12,000 feet AGL
Clouds: few clouds at 2000 feet AGL
Weather: no significant weather observed at this time

METAR text: RJGG 201700Z 32022KT 9999 FEW020 07/02 Q1011 NOSIG
Conditions at: RJGG (NAGOYA/CHUBU , JP) observed 1700 UTC 20 January 2019
Temperature: 7.0°C (45°F)
Dewpoint: 2.0°C (36°F) [RH = 70%]
Pressure (altimeter): 29.85 inches Hg (1011.0 mb)
Winds: from the NW (320 degrees) at 25 MPH (22 knots; 11.3 m/s)
Visibility: 6 or more miles (10+ km)
Ceiling: at least 12,000 feet AGL
Clouds: few clouds at 2000 feet AGL
Weather: no significant weather observed at this time

METAR text: RJGG 201630Z 30025KT 9999 FEW020 07/02 Q1011 NOSIG
Conditions at: RJGG (NAGOYA/CHUBU , JP) observed 1630 UTC 20 January 2019
Temperature: 7.0°C (45°F)
Dewpoint: 2.0°C (36°F) [RH = 70%]
Pressure (altimeter): 29.85 inches Hg (1011.0 mb)
Winds: from the WNW (300 degrees) at 29 MPH (25 knots; 12.9 m/s)
Visibility: 6 or more miles (10+ km)
Ceiling: at least 12,000 feet AGL
Clouds: few clouds at 2000 feet AGL
Weather: no significant weather observed at this time

METAR text: RJGG 201600Z 31026KT 9999 FEW020 07/03 Q1010 NOSIG
Conditions at: RJGG (NAGOYA/CHUBU , JP) observed 1600 UTC 20 January 2019
Temperature: 7.0°C (45°F)
Dewpoint: 3.0°C (37°F) [RH = 76%]
Pressure (altimeter): 29.82 inches Hg (1010.0 mb)
Winds: from the NW (310 degrees) at 30 MPH (26 knots; 13.4 m/s)
Visibility: 6 or more miles (10+ km)
Ceiling: at least 12,000 feet AGL
Clouds: few clouds at 2000 feet AGL
Weather: no significant weather observed at this time

METAR text: RJGG 201530Z 31025KT 9999 FEW020 07/02 Q1010 NOSIG
Conditions at: RJGG (NAGOYA/CHUBU , JP) observed 1530 UTC 20 January 2019
Temperature: 7.0°C (45°F)
Dewpoint: 2.0°C (36°F) [RH = 70%]
Pressure (altimeter): 29.82 inches Hg (1010.0 mb)
Winds: from the NW (310 degrees) at 29 MPH (25 knots; 12.9 m/s)
Visibility: 6 or more miles (10+ km)
Ceiling: at least 12,000 feet AGL
Clouds: few clouds at 2000 feet AGL
Weather: no significant weather observed at this time

METAR text: RJGG 201500Z 33024KT 9999 FEW020 07/03 Q1010 NOSIG
Conditions at: RJGG (NAGOYA/CHUBU , JP) observed 1500 UTC 20 January 2019
Temperature: 7.0°C (45°F)
Dewpoint: 3.0°C (37°F) [RH = 76%]
Pressure (altimeter): 29.82 inches Hg (1010.0 mb)
Winds: from the NNW (330 degrees) at 28 MPH (24 knots; 12.3 m/s)
Visibility: 6 or more miles (10+ km)
Ceiling: at least 12,000 feet AGL
Clouds: few clouds at 2000 feet AGL
Weather: no significant weather observed at this time

METAR text: RJGG 201430Z 32026KT 9999 FEW020 08/04 Q1010 NOSIG
Conditions at: RJGG (NAGOYA/CHUBU , JP) observed 1430 UTC 20 January 2019
Temperature: 8.0°C (46°F)
Dewpoint: 4.0°C (39°F) [RH = 76%]
Pressure (altimeter): 29.82 inches Hg (1010.0 mb)
Winds: from the NW (320 degrees) at 30 MPH (26 knots; 13.4 m/s)
Visibility: 6 or more miles (10+ km)
Ceiling: at least 12,000 feet AGL
Clouds: few clouds at 2000 feet AGL
Weather: no significant weather observed at this time

METAR text: RJGG 201400Z 32028KT 9999 FEW020 08/04 Q1010 NOSIG
Conditions at: RJGG (NAGOYA/CHUBU , JP) observed 1400 UTC 20 January 2019
Temperature: 8.0°C (46°F)
Dewpoint: 4.0°C (39°F) [RH = 76%]
Pressure (altimeter): 29.82 inches Hg (1010.0 mb)
Winds: from the NW (320 degrees) at 32 MPH (28 knots; 14.4 m/s)
Visibility: 6 or more miles (10+ km)
Ceiling: at least 12,000 feet AGL
Clouds: few clouds at 2000 feet AGL
Weather: no significant weather observed at this time

METAR text: RJGG 201330Z 31028KT 9999 FEW020 08/04 Q1009 NOSIG
Conditions at: RJGG (NAGOYA/CHUBU , JP) observed 1330 UTC 20 January 2019
Temperature: 8.0°C (46°F)
Dewpoint: 4.0°C (39°F) [RH = 76%]
Pressure (altimeter): 29.79 inches Hg (1009.0 mb)
Winds: from the NW (310 degrees) at 32 MPH (28 knots; 14.4 m/s)
Visibility: 6 or more miles (10+ km)
Ceiling: at least 12,000 feet AGL
Clouds: few clouds at 2000 feet AGL
Weather: no significant weather observed at this time

METAR text: RJGG 201300Z 32026KT 9999 FEW020 08/05 Q1009 NOSIG
Conditions at: RJGG (NAGOYA/CHUBU , JP) observed 1300 UTC 20 January 2019
Temperature: 8.0°C (46°F)
Dewpoint: 5.0°C (41°F) [RH = 81%]
Pressure (altimeter): 29.79 inches Hg (1009.0 mb)
Winds: from the NW (320 degrees) at 30 MPH (26 knots; 13.4 m/s)
Visibility: 6 or more miles (10+ km)
Ceiling: at least 12,000 feet AGL
Clouds: few clouds at 2000 feet AGL
Weather: no significant weather observed at this time

METAR text: RJGG 201230Z 31026KT 9999 VCSH FEW020 09/05 Q1009 NOSIG
Conditions at: RJGG (NAGOYA/CHUBU , JP) observed 1230 UTC 20 January 2019
Temperature: 9.0°C (48°F)
Dewpoint: 5.0°C (41°F) [RH = 76%]
Pressure (altimeter): 29.79 inches Hg (1009.0 mb)
Winds: from the NW (310 degrees) at 30 MPH (26 knots; 13.4 m/s)
Visibility: 6 or more miles (10+ km)
Ceiling: at least 12,000 feet AGL
Clouds: few clouds at 2000 feet AGL
Weather: VCSH  (showers in vicinity)

METAR text: RJGG 201200Z 31025KT 9999 FEW020 09/05 Q1009 NOSIG
Conditions at: RJGG (NAGOYA/CHUBU , JP) observed 1200 UTC 20 January 2019
Temperature: 9.0°C (48°F)
Dewpoint: 5.0°C (41°F) [RH = 76%]
Pressure (altimeter): 29.79 inches Hg (1009.0 mb)
Winds: from the NW (310 degrees) at 29 MPH (25 knots; 12.9 m/s)
Visibility: 6 or more miles (10+ km)
Ceiling: at least 12,000 feet AGL
Clouds: few clouds at 2000 feet AGL
Weather: no significant weather observed at this time

METAR text: RJGG 201130Z 30029KT 9999 FEW020 09/05 Q1009 NOSIG
Conditions at: RJGG (NAGOYA/CHUBU , JP) observed 1130 UTC 20 January 2019
Temperature: 9.0°C (48°F)
Dewpoint: 5.0°C (41°F) [RH = 76%]
Pressure (altimeter): 29.79 inches Hg (1009.0 mb)
Winds: from the WNW (300 degrees) at 33 MPH (29 knots; 14.9 m/s)
Visibility: 6 or more miles (10+ km)
Ceiling: at least 12,000 feet AGL
Clouds: few clouds at 2000 feet AGL
Weather: no significant weather observed at this time

METAR text: RJGG 201100Z 30028KT 9999 FEW020 09/05 Q1008 NOSIG
Conditions at: RJGG (NAGOYA/CHUBU , JP) observed 1100 UTC 20 January 2019
Temperature: 9.0°C (48°F)
Dewpoint: 5.0°C (41°F) [RH = 76%]
Pressure (altimeter): 29.76 inches Hg (1008.0 mb)
Winds: from the WNW (300 degrees) at 32 MPH (28 knots; 14.4 m/s)
Visibility: 6 or more miles (10+ km)
Ceiling: at least 12,000 feet AGL
Clouds: few clouds at 2000 feet AGL
Weather: no significant weather observed at this time

METAR text: RJGG 201030Z 31026KT 9999 VCSH FEW020 09/05 Q1008 NOSIG
Conditions at: RJGG (NAGOYA/CHUBU , JP) observed 1030 UTC 20 January 2019
Temperature: 9.0°C (48°F)
Dewpoint: 5.0°C (41°F) [RH = 76%]
Pressure (altimeter): 29.76 inches Hg (1008.0 mb)
Winds: from the NW (310 degrees) at 30 MPH (26 knots; 13.4 m/s)
Visibility: 6 or more miles (10+ km)
Ceiling: at least 12,000 feet AGL
Clouds: few clouds at 2000 feet AGL
Weather: VCSH  (showers in vicinity)

METAR text: RJGG 201000Z 30025KT 9999 FEW020 09/05 Q1008 NOSIG
Conditions at: RJGG (NAGOYA/CHUBU , JP) observed 1000 UTC 20 January 2019
Temperature: 9.0°C (48°F)
Dewpoint: 5.0°C (41°F) [RH = 76%]
Pressure (altimeter): 29.76 inches Hg (1008.0 mb)
Winds: from the WNW (300 degrees) at 29 MPH (25 knots; 12.9 m/s)
Visibility: 6 or more miles (10+ km)
Ceiling: at least 12,000 feet AGL
Clouds: few clouds at 2000 feet AGL
Weather: no significant weather observed at this time

METAR text: RJGG 200930Z 31027KT 9999 FEW015 10/05 Q1008 NOSIG
Conditions at: RJGG (NAGOYA/CHUBU , JP) observed 0930 UTC 20 January 2019
Temperature: 10.0°C (50°F)
Dewpoint: 5.0°C (41°F) [RH = 71%]
Pressure (altimeter): 29.76 inches Hg (1008.0 mb)
Winds: from the NW (310 degrees) at 31 MPH (27 knots; 13.9 m/s)
Visibility: 6 or more miles (10+ km)
Ceiling: at least 12,000 feet AGL
Clouds: few clouds at 1500 feet AGL
Weather: no significant weather observed at this time

METAR text: RJGG 200900Z 31028KT 9999 FEW015 10/05 Q1008 NOSIG
Conditions at: RJGG (NAGOYA/CHUBU , JP) observed 0900 UTC 20 January 2019
Temperature: 10.0°C (50°F)
Dewpoint: 5.0°C (41°F) [RH = 71%]
Pressure (altimeter): 29.76 inches Hg (1008.0 mb)
Winds: from the NW (310 degrees) at 32 MPH (28 knots; 14.4 m/s)
Visibility: 6 or more miles (10+ km)
Ceiling: at least 12,000 feet AGL
Clouds: few clouds at 1500 feet AGL
Weather: no significant weather observed at this time

METAR text: RJGG 200830Z 31025KT 9999 FEW015 10/05 Q1008 NOSIG
Conditions at: RJGG (NAGOYA/CHUBU , JP) observed 0830 UTC 20 January 2019
Temperature: 10.0°C (50°F)
Dewpoint: 5.0°C (41°F) [RH = 71%]
Pressure (altimeter): 29.76 inches Hg (1008.0 mb)
Winds: from the NW (310 degrees) at 29 MPH (25 knots; 12.9 m/s)
Visibility: 6 or more miles (10+ km)
Ceiling: at least 12,000 feet AGL
Clouds: few clouds at 1500 feet AGL
Weather: no significant weather observed at this time

METAR text: RJGG 200800Z 30027KT 9999 FEW015 10/05 Q1007 NOSIG
Conditions at: RJGG (NAGOYA/CHUBU , JP) observed 0800 UTC 20 January 2019
Temperature: 10.0°C (50°F)
Dewpoint: 5.0°C (41°F) [RH = 71%]
Pressure (altimeter): 29.73 inches Hg (1007.0 mb)
Winds: from the WNW (300 degrees) at 31 MPH (27 knots; 13.9 m/s)
Visibility: 6 or more miles (10+ km)
Ceiling: at least 12,000 feet AGL
Clouds: few clouds at 1500 feet AGL
Weather: no significant weather observed at this time

METAR text: RJGG 200730Z 30020KT 9999 FEW015 10/06 Q1008 NOSIG
Conditions at: RJGG (NAGOYA/CHUBU , JP) observed 0730 UTC 20 January 2019
Temperature: 10.0°C (50°F)
Dewpoint: 6.0°C (43°F) [RH = 76%]
Pressure (altimeter): 29.76 inches Hg (1008.0 mb)
Winds: from the WNW (300 degrees) at 23 MPH (20 knots; 10.3 m/s)
Visibility: 6 or more miles (10+ km)
Ceiling: at least 12,000 feet AGL
Clouds: few clouds at 1500 feet AGL
Weather: no significant weather observed at this time

METAR text: RJGG 200700Z 04004KT 340V080 9999 FEW010 SCT030 08/06 Q1008 BECMG 30020KT
Conditions at: RJGG (NAGOYA/CHUBU , JP) observed 0700 UTC 20 January 2019
Temperature: 8.0°C (46°F)
Dewpoint: 6.0°C (43°F) [RH = 87%]
Pressure (altimeter): 29.76 inches Hg (1008.0 mb)
Winds: from the NE (40 degrees) at 5 MPH (4 knots; 2.1 m/s)
Visibility: 6 or more miles (10+ km)
Ceiling: at least 12,000 feet AGL
Clouds: few clouds at 1000 feet AGL
scattered clouds at 3000 feet AGL
Weather: no significant weather observed at this time

METAR text: RJGG 200630Z 02008KT 340V050 9999 FEW007 SCT015 BKN030 07/06 Q1008 BECMG 30016KT
Conditions at: RJGG (NAGOYA/CHUBU , JP) observed 0630 UTC 20 January 2019
Temperature: 7.0°C (45°F)
Dewpoint: 6.0°C (43°F) [RH = 93%]
Pressure (altimeter): 29.76 inches Hg (1008.0 mb)
Winds: from the NNE (20 degrees) at 9 MPH (8 knots; 4.1 m/s)
Visibility: 6 or more miles (10+ km)
Ceiling: 3000 feet AGL
Clouds: few clouds at 700 feet AGL
scattered clouds at 1500 feet AGL
broken clouds at 3000 feet AGL
Weather: no significant weather observed at this time

METAR text: RJGG 200600Z 01011KT 9999 FEW007 SCT010 BKN020 07/05 Q1008 BECMG 30016KT
Conditions at: RJGG (NAGOYA/CHUBU , JP) observed 0600 UTC 20 January 2019
Temperature: 7.0°C (45°F)
Dewpoint: 5.0°C (41°F) [RH = 87%]
Pressure (altimeter): 29.76 inches Hg (1008.0 mb)
Winds: from the N (10 degrees) at 13 MPH (11 knots; 5.7 m/s)
Visibility: 6 or more miles (10+ km)
Ceiling: 2000 feet AGL
Clouds: few clouds at 700 feet AGL
scattered clouds at 1000 feet AGL
broken clouds at 2000 feet AGL
Weather: no significant weather observed at this time

METAR text: RJGG 200530Z 35005KT 300V020 9999 FEW009 SCT013 BKN020 07/05 Q1008 BECMG 32016KT
Conditions at: RJGG (NAGOYA/CHUBU , JP) observed 0530 UTC 20 January 2019
Temperature: 7.0°C (45°F)
Dewpoint: 5.0°C (41°F) [RH = 87%]
Pressure (altimeter): 29.76 inches Hg (1008.0 mb)
Winds: from the N (350 degrees) at 6 MPH (5 knots; 2.6 m/s)
Visibility: 6 or more miles (10+ km)
Ceiling: 2000 feet AGL
Clouds: few clouds at 900 feet AGL
scattered clouds at 1300 feet AGL
broken clouds at 2000 feet AGL
Weather: no significant weather observed at this time

METAR text: RJGG 200500Z 30004KT 280V340 9999 FEW009 SCT013 BKN025 07/06 Q1008 BECMG 32016KT
Conditions at: RJGG (NAGOYA/CHUBU , JP) observed 0500 UTC 20 January 2019
Temperature: 7.0°C (45°F)
Dewpoint: 6.0°C (43°F) [RH = 93%]
Pressure (altimeter): 29.76 inches Hg (1008.0 mb)
Winds: from the WNW (300 degrees) at 5 MPH (4 knots; 2.1 m/s)
Visibility: 6 or more miles (10+ km)
Ceiling: 2500 feet AGL
Clouds: few clouds at 900 feet AGL
scattered clouds at 1300 feet AGL
broken clouds at 2500 feet AGL
Weather: no significant weather observed at this time

METAR text: RJGG 200430Z 34006KT 9999 -RA FEW006 SCT008 BKN020 07/05 Q1008 BECMG 32016KT
Conditions at: RJGG (NAGOYA/CHUBU , JP) observed 0430 UTC 20 January 2019
Temperature: 7.0°C (45°F)
Dewpoint: 5.0°C (41°F) [RH = 87%]
Pressure (altimeter): 29.76 inches Hg (1008.0 mb)
Winds: from the NNW (340 degrees) at 7 MPH (6 knots; 3.1 m/s)
Visibility: 6 or more miles (10+ km)
Ceiling: 2000 feet AGL
Clouds: few clouds at 600 feet AGL
scattered clouds at 800 feet AGL
broken clouds at 2000 feet AGL
Weather: -RA  (light rain)

METAR text: RJGG 200400Z 33009KT 9999 -RA FEW005 SCT008 BKN020 07/05 Q1008 NOSIG
Conditions at: RJGG (NAGOYA/CHUBU , JP) observed 0400 UTC 20 January 2019
Temperature: 7.0°C (45°F)
Dewpoint: 5.0°C (41°F) [RH = 87%]
Pressure (altimeter): 29.76 inches Hg (1008.0 mb)
Winds: from the NNW (330 degrees) at 10 MPH (9 knots; 4.6 m/s)
Visibility: 6 or more miles (10+ km)
Ceiling: 2000 feet AGL
Clouds: few clouds at 500 feet AGL
scattered clouds at 800 feet AGL
broken clouds at 2000 feet AGL
Weather: -RA  (light rain)

METAR text: RJGG 200330Z 35009KT 9999 -RA FEW006 BKN020 BKN040 07/05 Q1009 NOSIG
Conditions at: RJGG (NAGOYA/CHUBU , JP) observed 0330 UTC 20 January 2019
Temperature: 7.0°C (45°F)
Dewpoint: 5.0°C (41°F) [RH = 87%]
Pressure (altimeter): 29.79 inches Hg (1009.0 mb)
Winds: from the N (350 degrees) at 10 MPH (9 knots; 4.6 m/s)
Visibility: 6 or more miles (10+ km)
Ceiling: 2000 feet AGL
Clouds: few clouds at 600 feet AGL
broken clouds at 2000 feet AGL
broken clouds at 4000 feet AGL
Weather: -RA  (light rain)

METAR text: RJGG 200300Z 35012KT 9999 -RA FEW006 BKN025 BKN050 07/05 Q1010 NOSIG
Conditions at: RJGG (NAGOYA/CHUBU , JP) observed 0300 UTC 20 January 2019
Temperature: 7.0°C (45°F)
Dewpoint: 5.0°C (41°F) [RH = 87%]
Pressure (altimeter): 29.82 inches Hg (1010.0 mb)
Winds: from the N (350 degrees) at 14 MPH (12 knots; 6.2 m/s)
Visibility: 6 or more miles (10+ km)
Ceiling: 2500 feet AGL
Clouds: few clouds at 600 feet AGL
broken clouds at 2500 feet AGL
broken clouds at 5000 feet AGL
Weather: -RA  (light rain)

METAR text: RJGG 200230Z 34014KT 9999 -RA FEW006 SCT025 BKN050 06/04 Q1010 NOSIG
Conditions at: RJGG (NAGOYA/CHUBU , JP) observed 0230 UTC 20 January 2019
Temperature: 6.0°C (43°F)
Dewpoint: 4.0°C (39°F) [RH = 87%]
Pressure (altimeter): 29.82 inches Hg (1010.0 mb)
Winds: from the NNW (340 degrees) at 16 MPH (14 knots; 7.2 m/s)
Visibility: 6 or more miles (10+ km)
Ceiling: 5000 feet AGL
Clouds: few clouds at 600 feet AGL
scattered clouds at 2500 feet AGL
broken clouds at 5000 feet AGL
Weather: -RA  (light rain)

METAR text: RJGG 200200Z 35014KT 9999 -RA FEW007 SCT040 BKN060 06/05 Q1011 NOSIG
Conditions at: RJGG (NAGOYA/CHUBU , JP) observed 0200 UTC 20 January 2019
Temperature: 6.0°C (43°F)
Dewpoint: 5.0°C (41°F) [RH = 93%]
Pressure (altimeter): 29.85 inches Hg (1011.0 mb)
Winds: from the N (350 degrees) at 16 MPH (14 knots; 7.2 m/s)
Visibility: 6 or more miles (10+ km)
Ceiling: 6000 feet AGL
Clouds: few clouds at 700 feet AGL
scattered clouds at 4000 feet AGL
broken clouds at 6000 feet AGL
Weather: -RA  (light rain)

METAR text: RJGG 200130Z 35012KT 9999 -RA FEW015 SCT040 BKN060 07/05 Q1011 NOSIG
Conditions at: RJGG (NAGOYA/CHUBU , JP) observed 0130 UTC 20 January 2019
Temperature: 7.0°C (45°F)
Dewpoint: 5.0°C (41°F) [RH = 87%]
Pressure (altimeter): 29.85 inches Hg (1011.0 mb)
Winds: from the N (350 degrees) at 14 MPH (12 knots; 6.2 m/s)
Visibility: 6 or more miles (10+ km)
Ceiling: 6000 feet AGL
Clouds: few clouds at 1500 feet AGL
scattered clouds at 4000 feet AGL
broken clouds at 6000 feet AGL
Weather: -RA  (light rain)

METAR text: RJGG 200100Z 35013KT 9999 -RA FEW015 SCT040 BKN060 06/04 Q1011 NOSIG
Conditions at: RJGG (NAGOYA/CHUBU , JP) observed 0100 UTC 20 January 2019
Temperature: 6.0°C (43°F)
Dewpoint: 4.0°C (39°F) [RH = 87%]
Pressure (altimeter): 29.85 inches Hg (1011.0 mb)
Winds: from the N (350 degrees) at 15 MPH (13 knots; 6.7 m/s)
Visibility: 6 or more miles (10+ km)
Ceiling: 6000 feet AGL
Clouds: few clouds at 1500 feet AGL
scattered clouds at 4000 feet AGL
broken clouds at 6000 feet AGL
Weather: -RA  (light rain)

METAR text: RJGG 200030Z 35013KT 9999 -RA FEW015 BKN050 06/04 Q1011 NOSIG
Conditions at: RJGG (NAGOYA/CHUBU , JP) observed 0030 UTC 20 January 2019
Temperature: 6.0°C (43°F)
Dewpoint: 4.0°C (39°F) [RH = 87%]
Pressure (altimeter): 29.85 inches Hg (1011.0 mb)
Winds: from the N (350 degrees) at 15 MPH (13 knots; 6.7 m/s)
Visibility: 6 or more miles (10+ km)
Ceiling: 5000 feet AGL
Clouds: few clouds at 1500 feet AGL
broken clouds at 5000 feet AGL
Weather: -RA  (light rain)

METAR text: RJGG 200000Z 35013KT 9999 -RA FEW020 BKN050 06/03 Q1012 NOSIG
Conditions at: RJGG (NAGOYA/CHUBU , JP) observed 0000 UTC 20 January 2019
Temperature: 6.0°C (43°F)
Dewpoint: 3.0°C (37°F) [RH = 81%]
Pressure (altimeter): 29.88 inches Hg (1012.0 mb)
Winds: from the N (350 degrees) at 15 MPH (13 knots; 6.7 m/s)
Visibility: 6 or more miles (10+ km)
Ceiling: 5000 feet AGL
Clouds: few clouds at 2000 feet AGL
broken clouds at 5000 feet AGL
Weather: -RA  (light rain)

METAR text: RJGG 192330Z 35011KT 9999 -RA FEW020 BKN050 06/03 Q1012 NOSIG
Conditions at: RJGG (NAGOYA/CHUBU , JP) observed 2330 UTC 19 January 2019
Temperature: 6.0°C (43°F)
Dewpoint: 3.0°C (37°F) [RH = 81%]
Pressure (altimeter): 29.88 inches Hg (1012.0 mb)
Winds: from the N (350 degrees) at 13 MPH (11 knots; 5.7 m/s)
Visibility: 6 or more miles (10+ km)
Ceiling: 5000 feet AGL
Clouds: few clouds at 2000 feet AGL
broken clouds at 5000 feet AGL
Weather: -RA  (light rain)

METAR text: RJGG 192300Z 36011KT 9999 -RA FEW020 BKN050 06/02 Q1012 NOSIG
Conditions at: RJGG (NAGOYA/CHUBU , JP) observed 2300 UTC 19 January 2019
Temperature: 6.0°C (43°F)
Dewpoint: 2.0°C (36°F) [RH = 75%]
Pressure (altimeter): 29.88 inches Hg (1012.0 mb)
Winds: from the N (360 degrees) at 13 MPH (11 knots; 5.7 m/s)
Visibility: 6 or more miles (10+ km)
Ceiling: 5000 feet AGL
Clouds: few clouds at 2000 feet AGL
broken clouds at 5000 feet AGL
Weather: -RA  (light rain)

METAR text: RJGG 192230Z 36009KT 9999 -RA FEW020 BKN050 06/02 Q1013 NOSIG
Conditions at: RJGG (NAGOYA/CHUBU , JP) observed 2230 UTC 19 January 2019
Temperature: 6.0°C (43°F)
Dewpoint: 2.0°C (36°F) [RH = 75%]
Pressure (altimeter): 29.91 inches Hg (1013.0 mb)
Winds: from the N (360 degrees) at 10 MPH (9 knots; 4.6 m/s)
Visibility: 6 or more miles (10+ km)
Ceiling: 5000 feet AGL
Clouds: few clouds at 2000 feet AGL
broken clouds at 5000 feet AGL
Weather: -RA  (light rain)

METAR text: RJGG 192200Z 35013KT 9999 -RA FEW030 BKN050 06/02 Q1013 NOSIG
Conditions at: RJGG (NAGOYA/CHUBU , JP) observed 2200 UTC 19 January 2019
Temperature: 6.0°C (43°F)
Dewpoint: 2.0°C (36°F) [RH = 75%]
Pressure (altimeter): 29.91 inches Hg (1013.0 mb)
Winds: from the N (350 degrees) at 15 MPH (13 knots; 6.7 m/s)
Visibility: 6 or more miles (10+ km)
Ceiling: 5000 feet AGL
Clouds: few clouds at 3000 feet AGL
broken clouds at 5000 feet AGL
Weather: -RA  (light rain)

METAR text: RJGG 192130Z 35012KT 9999 -RA FEW030 BKN060 06/01 Q1013 NOSIG
Conditions at: RJGG (NAGOYA/CHUBU , JP) observed 2130 UTC 19 January 2019
Temperature: 6.0°C (43°F)
Dewpoint: 1.0°C (34°F) [RH = 70%]
Pressure (altimeter): 29.91 inches Hg (1013.0 mb)
Winds: from the N (350 degrees) at 14 MPH (12 knots; 6.2 m/s)
Visibility: 6 or more miles (10+ km)
Ceiling: 6000 feet AGL
Clouds: few clouds at 3000 feet AGL
broken clouds at 6000 feet AGL
Weather: -RA  (light rain)

METAR text: RJGG 192100Z 36007KT 9999 VCSH FEW030 BKN060 07/03 Q1014 NOSIG
Conditions at: RJGG (NAGOYA/CHUBU , JP) observed 2100 UTC 19 January 2019
Temperature: 7.0°C (45°F)
Dewpoint: 3.0°C (37°F) [RH = 76%]
Pressure (altimeter): 29.94 inches Hg (1014.0 mb)
Winds: from the N (360 degrees) at 8 MPH (7 knots; 3.6 m/s)
Visibility: 6 or more miles (10+ km)
Ceiling: 6000 feet AGL
Clouds: few clouds at 3000 feet AGL
broken clouds at 6000 feet AGL
Weather: VCSH  (showers in vicinity)

METAR text: RJGG 192030Z 36004KT 9999 VCSH FEW030 BKN060 06/01 Q1014 NOSIG
Conditions at: RJGG (NAGOYA/CHUBU , JP) observed 2030 UTC 19 January 2019
Temperature: 6.0°C (43°F)
Dewpoint: 1.0°C (34°F) [RH = 70%]
Pressure (altimeter): 29.94 inches Hg (1014.0 mb)
Winds: from the N (360 degrees) at 5 MPH (4 knots; 2.1 m/s)
Visibility: 6 or more miles (10+ km)
Ceiling: 6000 feet AGL
Clouds: few clouds at 3000 feet AGL
broken clouds at 6000 feet AGL
Weather: VCSH  (showers in vicinity)

METAR text: RJGG 192000Z 05005KT 9999 -RA FEW030 BKN060 06/00 Q1013 NOSIG
Conditions at: RJGG (NAGOYA/CHUBU , JP) observed 2000 UTC 19 January 2019
Temperature: 6.0°C (43°F)
Dewpoint: 0.0°C (32°F) [RH = 65%]
Pressure (altimeter): 29.91 inches Hg (1013.0 mb)
Winds: from the NE (50 degrees) at 6 MPH (5 knots; 2.6 m/s)
Visibility: 6 or more miles (10+ km)
Ceiling: 6000 feet AGL
Clouds: few clouds at 3000 feet AGL
broken clouds at 6000 feet AGL
Weather: -RA  (light rain)

METAR text: RJGG 191930Z 04003KT 9999 -RA FEW030 BKN060 06/00 Q1014 NOSIG
Conditions at: RJGG (NAGOYA/CHUBU , JP) observed 1930 UTC 19 January 2019
Temperature: 6.0°C (43°F)
Dewpoint: 0.0°C (32°F) [RH = 65%]
Pressure (altimeter): 29.94 inches Hg (1014.0 mb)
Winds: from the NE (40 degrees) at 3 MPH (3 knots; 1.5 m/s)
Visibility: 6 or more miles (10+ km)
Ceiling: 6000 feet AGL
Clouds: few clouds at 3000 feet AGL
broken clouds at 6000 feet AGL
Weather: -RA  (light rain)

METAR text: RJGG 191900Z 03005KT 9999 FEW030 BKN100 06/00 Q1015 NOSIG
Conditions at: RJGG (NAGOYA/CHUBU , JP) observed 1900 UTC 19 January 2019
Temperature: 6.0°C (43°F)
Dewpoint: 0.0°C (32°F) [RH = 65%]
Pressure (altimeter): 29.97 inches Hg (1015.0 mb)
Winds: from the NNE (30 degrees) at 6 MPH (5 knots; 2.6 m/s)
Visibility: 6 or more miles (10+ km)
Ceiling: 10000 feet AGL
Clouds: few clouds at 3000 feet AGL
broken clouds at 10000 feet AGL
Weather: no significant weather observed at this time

METAR text: RJGG 191830Z 03004KT 9999 FEW030 BKN110 06/01 Q1015 NOSIG
Conditions at: RJGG (NAGOYA/CHUBU , JP) observed 1830 UTC 19 January 2019
Temperature: 6.0°C (43°F)
Dewpoint: 1.0°C (34°F) [RH = 70%]
Pressure (altimeter): 29.97 inches Hg (1015.0 mb)
Winds: from the NNE (30 degrees) at 5 MPH (4 knots; 2.1 m/s)
Visibility: 6 or more miles (10+ km)
Ceiling: 11000 feet AGL
Clouds: few clouds at 3000 feet AGL
broken clouds at 11000 feet AGL
Weather: no significant weather observed at this time

METAR text: RJGG 191800Z 36003KT 9999 FEW030 BKN110 06/02 Q1016 NOSIG
Conditions at: RJGG (NAGOYA/CHUBU , JP) observed 1800 UTC 19 January 2019
Temperature: 6.0°C (43°F)
Dewpoint: 2.0°C (36°F) [RH = 75%]
Pressure (altimeter): 30.00 inches Hg (1016.0 mb)
Winds: from the N (360 degrees) at 3 MPH (3 knots; 1.5 m/s)
Visibility: 6 or more miles (10+ km)
Ceiling: 11000 feet AGL
Clouds: few clouds at 3000 feet AGL
broken clouds at 11000 feet AGL
Weather: no significant weather observed at this time

METAR text: RJGG 191730Z 36003KT 9999 FEW030 BKN120 06/01 Q1017 NOSIG
Conditions at: RJGG (NAGOYA/CHUBU , JP) observed 1730 UTC 19 January 2019
Temperature: 6.0°C (43°F)
Dewpoint: 1.0°C (34°F) [RH = 70%]
Pressure (altimeter): 30.03 inches Hg (1017.0 mb)
Winds: from the N (360 degrees) at 3 MPH (3 knots; 1.5 m/s)
Visibility: 6 or more miles (10+ km)
Ceiling: 12000 feet AGL
Clouds: few clouds at 3000 feet AGL
broken clouds at 12000 feet AGL
Weather: no significant weather observed at this time

METAR text: RJGG 191700Z 03004KT 9999 FEW030 BKN120 06/02 Q1017 NOSIG
Conditions at: RJGG (NAGOYA/CHUBU , JP) observed 1700 UTC 19 January 2019
Temperature: 6.0°C (43°F)
Dewpoint: 2.0°C (36°F) [RH = 75%]
Pressure (altimeter): 30.03 inches Hg (1017.0 mb)
Winds: from the NNE (30 degrees) at 5 MPH (4 knots; 2.1 m/s)
Visibility: 6 or more miles (10+ km)
Ceiling: 12000 feet AGL
Clouds: few clouds at 3000 feet AGL
broken clouds at 12000 feet AGL
Weather: no significant weather observed at this time

METAR text: RJGG 191630Z 01003KT 9999 FEW030 BKN110 05/02 Q1017 NOSIG
Conditions at: RJGG (NAGOYA/CHUBU , JP) observed 1630 UTC 19 January 2019
Temperature: 5.0°C (41°F)
Dewpoint: 2.0°C (36°F) [RH = 81%]
Pressure (altimeter): 30.03 inches Hg (1017.0 mb)
Winds: from the N (10 degrees) at 3 MPH (3 knots; 1.5 m/s)
Visibility: 6 or more miles (10+ km)
Ceiling: 11000 feet AGL
Clouds: few clouds at 3000 feet AGL
broken clouds at 11000 feet AGL
Weather: no significant weather observed at this time

METAR text: RJGG 191600Z 04002KT 9999 FEW030 BKN120 06/01 Q1018 NOSIG
Conditions at: RJGG (NAGOYA/CHUBU , JP) observed 1600 UTC 19 January 2019
Temperature: 6.0°C (43°F)
Dewpoint: 1.0°C (34°F) [RH = 70%]
Pressure (altimeter): 30.06 inches Hg (1018.0 mb)
Winds: from the NE (40 degrees) at 2 MPH (2 knots; 1.0 m/s)
Visibility: 6 or more miles (10+ km)
Ceiling: 12000 feet AGL
Clouds: few clouds at 3000 feet AGL
broken clouds at 12000 feet AGL
Weather: no significant weather observed at this time

METAR text: RJGG 191530Z 04003KT 9999 FEW030 BKN120 07/01 Q1018 NOSIG
Conditions at: RJGG (NAGOYA/CHUBU , JP) observed 1530 UTC 19 January 2019
Temperature: 7.0°C (45°F)
Dewpoint: 1.0°C (34°F) [RH = 66%]
Pressure (altimeter): 30.06 inches Hg (1018.0 mb)
Winds: from the NE (40 degrees) at 3 MPH (3 knots; 1.5 m/s)
Visibility: 6 or more miles (10+ km)
Ceiling: 12000 feet AGL
Clouds: few clouds at 3000 feet AGL
broken clouds at 12000 feet AGL
Weather: no significant weather observed at this time

METAR text: RJGG 191500Z 05004KT 9999 FEW030 05/02 Q1018 NOSIG
Conditions at: RJGG (NAGOYA/CHUBU , JP) observed 1500 UTC 19 January 2019
Temperature: 5.0°C (41°F)
Dewpoint: 2.0°C (36°F) [RH = 81%]
Pressure (altimeter): 30.06 inches Hg (1018.0 mb)
Winds: from the NE (50 degrees) at 5 MPH (4 knots; 2.1 m/s)
Visibility: 6 or more miles (10+ km)
Ceiling: at least 12,000 feet AGL
Clouds: few clouds at 3000 feet AGL
Weather: no significant weather observed at this time

METAR text: RJGG 191430Z 05003KT 9999 FEW030 08/03 Q1018 NOSIG
Conditions at: RJGG (NAGOYA/CHUBU , JP) observed 1430 UTC 19 January 2019
Temperature: 8.0°C (46°F)
Dewpoint: 3.0°C (37°F) [RH = 71%]
Pressure (altimeter): 30.06 inches Hg (1018.0 mb)
Winds: from the NE (50 degrees) at 3 MPH (3 knots; 1.5 m/s)
Visibility: 6 or more miles (10+ km)
Ceiling: at least 12,000 feet AGL
Clouds: few clouds at 3000 feet AGL
Weather: no significant weather observed at this time

METAR text: RJGG 191400Z 05003KT 9999 FEW030 BKN120 07/03 Q1019 NOSIG
Conditions at: RJGG (NAGOYA/CHUBU , JP) observed 1400 UTC 19 January 2019
Temperature: 7.0°C (45°F)
Dewpoint: 3.0°C (37°F) [RH = 76%]
Pressure (altimeter): 30.09 inches Hg (1019.0 mb)
Winds: from the NE (50 degrees) at 3 MPH (3 knots; 1.5 m/s)
Visibility: 6 or more miles (10+ km)
Ceiling: 12000 feet AGL
Clouds: few clouds at 3000 feet AGL
broken clouds at 12000 feet AGL
Weather: no significant weather observed at this time

METAR text: RJGG 191330Z 06004KT 9999 FEW030 BKN130 07/03 Q1019 NOSIG
Conditions at: RJGG (NAGOYA/CHUBU , JP) observed 1330 UTC 19 January 2019
Temperature: 7.0°C (45°F)
Dewpoint: 3.0°C (37°F) [RH = 76%]
Pressure (altimeter): 30.09 inches Hg (1019.0 mb)
Winds: from the ENE (60 degrees) at 5 MPH (4 knots; 2.1 m/s)
Visibility: 6 or more miles (10+ km)
Ceiling: 13000 feet AGL
Clouds: few clouds at 3000 feet AGL
broken clouds at 13000 feet AGL
Weather: no significant weather observed at this time

METAR text: RJGG 191300Z 36005KT 9999 FEW030 06/01 Q1020 NOSIG
Conditions at: RJGG (NAGOYA/CHUBU , JP) observed 1300 UTC 19 January 2019
Temperature: 6.0°C (43°F)
Dewpoint: 1.0°C (34°F) [RH = 70%]
Pressure (altimeter): 30.12 inches Hg (1020.0 mb)
Winds: from the N (360 degrees) at 6 MPH (5 knots; 2.6 m/s)
Visibility: 6 or more miles (10+ km)
Ceiling: at least 12,000 feet AGL
Clouds: few clouds at 3000 feet AGL
Weather: no significant weather observed at this time

METAR text: RJGG 191230Z 01003KT 330V040 9999 FEW030 07/02 Q1020 NOSIG
Conditions at: RJGG (NAGOYA/CHUBU , JP) observed 1230 UTC 19 January 2019
Temperature: 7.0°C (45°F)
Dewpoint: 2.0°C (36°F) [RH = 70%]
Pressure (altimeter): 30.12 inches Hg (1020.0 mb)
Winds: from the N (10 degrees) at 3 MPH (3 knots; 1.5 m/s)
Visibility: 6 or more miles (10+ km)
Ceiling: at least 12,000 feet AGL
Clouds: few clouds at 3000 feet AGL
Weather: no significant weather observed at this time

METAR text: RJGG 191200Z 35003KT 9999 FEW030 09/02 Q1020 NOSIG
Conditions at: RJGG (NAGOYA/CHUBU , JP) observed 1200 UTC 19 January 2019
Temperature: 9.0°C (48°F)
Dewpoint: 2.0°C (36°F) [RH = 61%]
Pressure (altimeter): 30.12 inches Hg (1020.0 mb)
Winds: from the N (350 degrees) at 3 MPH (3 knots; 1.5 m/s)
Visibility: 6 or more miles (10+ km)
Ceiling: at least 12,000 feet AGL
Clouds: few clouds at 3000 feet AGL
Weather: no significant weather observed at this time

Forecast for: RJGG (NAGOYA/CHUBU , JP)
Text: TAF RJGG 202305Z 2100/2206 32012KT 9999 FEW020 SCT050
Forecast period: 0000 to 1500 UTC 21 January 2019
Forecast type: FROM: standard forecast or significant change
Winds: from the NW (320 degrees) at 14 MPH (12 knots; 6.2 m/s)
Visibility: 6 or more miles 10+ km)
Ceiling: at least 12,000 feet AGL
Clouds: few clouds at 2000 feet AGL
scattered clouds at 5000 feet AGL
Weather: no significant weather forecast for this period
Text: BECMG 2115/2118 28026KT
Forecast period: 1500 UTC 21 January 2019 to 0600 UTC 22 January 2019
Forecast type: BECOMING: Conditions expected to become as follows by 1800 UTC 21 January 2019
Winds: from the W (280 degrees) at 30 MPH (26 knots; 13.4 m/s)
Visibility: 6 or more miles 10+ km)
Ceiling: at least 12,000 feet AGL
Clouds: few clouds at 2000 feet AGL
scattered clouds at 5000 feet AGL
Weather: no significant weather forecast for this period
Text: TEMPO 2118/2200 28028G38KT
Forecast period: 1800 UTC 21 January 2019 to 0000 UTC 22 January 2019
Forecast type: TEMPORARY: The following changes expected for less than half the time period
Winds: from the W (280 degrees) at 32 MPH (28 knots; 14.4 m/s)
gusting to 44 MPH (38 knots; 19.5 m/s)
Visibility: missing
Ceiling: unknown
Clouds: missing
Weather: no significant weather forecast for this period